Time;durP1;ratioP1;P1;durP2;ratioP2;P2;SDS_P1;SDS_P2;PMS_P1;PMS_P2;Temp;Humidity;BMP_temperature;BMP_pressure;BME280_temperature;BME280_humidity;BME280_pressure;Samples;Min_cycle;Max_cycle;Signal;HPM_P1;HPM_P2
2023/01/02 00:02:18;;;;;;;14.60;8.60;;;;;;;7.85;81.05;100127.48;24478;1337;3049805;-58
2023/01/02 00:04:49;;;;;;;11.50;6.00;;;;;;;7.69;81.61;100132.29;24479;1333;3028038;-58
2023/01/02 00:07:18;;;;;;;13.10;7.20;;;;;;;7.87;81.90;100123.89;24460;1334;3026113;-63
2023/01/02 00:09:47;;;;;;;15.20;8.60;;;;;;;8.46;79.79;100125.75;24508;1340;3050013;-61
2023/01/02 00:12:16;;;;;;;15.20;9.00;;;;;;;8.77;78.09;100118.88;24506;1334;3025818;-60
2023/01/02 00:14:45;;;;;;;13.80;9.10;;;;;;;8.42;78.82;100121.38;24524;1330;3028619;-58
2023/01/02 00:17:17;;;;;;;17.70;8.70;;;;;;;8.39;78.86;100122.73;24489;1338;3049820;-60
2023/01/02 00:19:47;;;;;;;18.00;9.20;;;;;;;8.08;79.55;100123.80;24491;1337;3027852;-62
2023/01/02 00:22:16;;;;;;;17.00;9.80;;;;;;;7.82;80.64;100120.62;24547;1334;3028587;-59
2023/01/02 00:24:45;;;;;;;11.50;7.30;;;;;;;7.76;81.40;100121.55;24479;1334;3050243;-58
2023/01/02 00:27:14;;;;;;;12.90;7.90;;;;;;;8.33;80.19;100118.44;24474;1331;3028314;-60
2023/01/02 00:29:44;;;;;;;15.10;8.20;;;;;;;8.84;77.76;100117.02;24557;1330;3026527;-59
2023/01/02 00:32:13;;;;;;;15.10;8.20;;;;;;;8.61;78.01;100116.08;24529;1323;3026002;-59
2023/01/02 00:34:43;;;;;;;15.40;9.40;;;;;;;8.34;78.67;100110.88;24496;1340;3056920;-59
2023/01/02 00:37:13;;;;;;;13.40;7.60;;;;;;;8.05;79.79;100114.32;24475;1339;3027203;-58
2023/01/02 00:39:42;;;;;;;14.90;8.60;;;;;;;7.81;80.63;100118.58;24526;1327;3025870;-62
2023/01/02 00:42:10;;;;;;;13.50;8.60;;;;;;;7.69;81.61;100114.86;24458;1335;3056366;-61
2023/01/02 00:44:40;;;;;;;15.20;8.20;;;;;;;8.12;81.12;100110.91;24460;1327;3028406;-58
2023/01/02 00:47:09;;;;;;;14.80;8.50;;;;;;;8.51;79.02;100103.38;24521;1330;3027948;-58
2023/01/02 00:49:39;;;;;;;14.90;9.20;;;;;;;8.18;79.07;100106.14;24453;1337;3056999;-60
2023/01/02 00:52:08;;;;;;;16.30;9.40;;;;;;;7.92;80.57;100101.73;24504;1330;3026027;-59
2023/01/02 00:54:37;;;;;;;17.10;9.50;;;;;;;7.69;81.12;100097.06;24529;1331;3050254;-61
2023/01/02 00:57:06;;;;;;;13.90;8.30;;;;;;;7.53;81.41;100092.98;24469;1339;3026134;-62
2023/01/02 00:59:36;;;;;;;11.80;7.10;;;;;;;7.42;82.05;100099.66;24472;1339;3070454;-62
2023/01/02 01:02:05;;;;;;;11.70;6.50;;;;;;;7.62;83.15;100095.23;24463;1330;3028547;-60
2023/01/02 01:04:34;;;;;;;12.60;8.60;;;;;;;8.13;80.57;100086.60;24480;1340;3049235;-58
2023/01/02 01:07:03;;;;;;;14.80;7.40;;;;;;;8.09;80.66;100088.87;24504;1334;3028840;-59
2023/01/02 01:09:33;;;;;;;11.90;8.10;;;;;;;8.07;79.99;100096.64;24466;1334;3028819;-59
2023/01/02 01:12:07;;;;;;;16.00;8.60;;;;;;;7.68;81.16;100088.23;24467;1326;3056355;-61
2023/01/02 01:14:37;;;;;;;14.60;8.20;;;;;;;7.60;81.08;100100.73;24501;1335;3028655;-59
2023/01/02 01:17:06;;;;;;;11.20;7.10;;;;;;;7.26;83.18;100100.43;24501;1327;3028098;-58
2023/01/02 01:19:35;;;;;;;13.90;8.60;;;;;;;7.66;82.36;100101.88;24477;1334;3055861;-59
2023/01/02 01:22:04;;;;;;;12.20;7.70;;;;;;;8.09;80.47;100099.67;24524;1324;3026557;-60
2023/01/02 01:24:33;;;;;;;17.50;9.30;;;;;;;7.80;80.64;100098.89;24508;1334;3050592;-58
2023/01/02 01:27:03;;;;;;;20.80;10.30;;;;;;;7.77;80.68;100098.85;24463;1324;3026531;-58
2023/01/02 01:29:32;;;;;;;19.70;10.30;;;;;;;7.40;82.01;100101.13;24479;1334;3069039;-59
2023/01/02 01:32:04;;;;;;;21.90;11.10;;;;;;;7.31;82.16;100099.70;24441;1334;3026071;-59
2023/01/02 01:34:34;;;;;;;10.80;7.30;;;;;;;7.16;83.18;100091.01;24501;1327;3028661;-57
2023/01/02 01:37:03;;;;;;;12.90;7.50;;;;;;;7.89;81.78;100092.60;24434;1335;3068569;-59
2023/01/02 01:39:32;;;;;;;15.00;8.90;;;;;;;8.29;79.71;100086.66;24487;1330;3028294;-59
2023/01/02 01:42:01;;;;;;;14.40;7.10;;;;;;;8.36;78.70;100094.58;24499;1324;3048777;-61
2023/01/02 01:44:52;;;;;;;15.40;9.10;;;;;;;8.00;79.27;100093.95;24487;1339;3026381;-59
2023/01/02 01:47:26;;;;;;;13.90;7.90;;;;;;;7.66;80.83;100093.52;24496;1333;3053382;-60
2023/01/02 01:49:59;;;;;;;13.60;7.90;;;;;;;7.44;81.43;100099.76;24486;1334;3049661;-61
2023/01/02 01:52:28;;;;;;;14.10;9.00;;;;;;;7.31;81.92;100106.15;24436;1339;3068187;-62
2023/01/02 01:55:07;;;;;;;16.50;9.50;;;;;;;7.35;82.51;100096.25;24552;1334;3026640;-60
2023/01/02 01:57:46;;;;;;;13.70;8.30;;;;;;;7.94;80.70;100088.23;24541;1334;3059269;-61
2023/01/02 02:00:16;;;;;;;15.10;9.00;;;;;;;8.29;79.10;100085.27;24546;1334;3052997;-60
2023/01/02 02:02:47;;;;;;;14.80;8.30;;;;;;;8.16;79.11;100090.35;24449;1339;3027892;-60
2023/01/02 02:05:18;;;;;;;14.10;8.60;;;;;;;8.02;79.26;100102.91;24509;1318;3028381;-59
2023/01/02 02:07:59;;;;;;;13.00;7.70;;;;;;;7.73;80.06;100112.44;24531;1334;3054047;-61
2023/01/02 02:10:28;;;;;;;13.90;8.10;;;;;;;7.39;81.55;100111.11;24513;1326;3050327;-62
2023/01/02 02:12:56;;;;;;;11.20;5.60;;;;;;;7.38;82.43;100113.58;24508;1326;3028226;-60
2023/01/02 02:16:11;;;;;;;9.30;5.60;;;;;;;7.97;81.21;100118.13;24491;1334;3051939;-60
2023/01/02 02:18:43;;;;;;;10.60;6.50;;;;;;;8.59;78.75;100105.16;24433;1334;3049972;-60
2023/01/02 02:21:29;;;;;;;14.40;8.00;;;;;;;8.59;77.84;100100.61;24449;1317;3028259;-58
2023/01/02 02:24:13;;;;;;;12.30;7.20;;;;;;;8.34;78.20;100115.10;24488;1334;3049055;-62
2023/01/02 02:26:57;;;;;;;11.40;7.40;;;;;;;8.12;78.75;100124.88;24440;1335;3056572;-58
2023/01/02 02:29:49;;;;;;;10.90;7.30;;;;;;;7.72;80.04;100141.77;24493;1333;3053931;-60
2023/01/02 02:32:41;;;;;;;10.20;6.40;;;;;;;7.66;80.22;100146.69;24482;1334;3053583;-58
2023/01/02 02:35:32;;;;;;;10.20;6.20;;;;;;;8.10;79.62;100137.49;24465;1324;3053230;-58
2023/01/02 02:38:13;;;;;;;11.20;6.90;;;;;;;8.35;77.98;100134.59;24477;1334;3053745;-61
2023/01/02 02:40:42;;;;;;;11.50;6.90;;;;;;;8.38;77.62;100128.52;24443;1337;3049689;-60
2023/01/02 02:43:35;;;;;;;15.90;8.00;;;;;;;8.17;78.32;100132.54;24505;1326;3026226;-62
2023/01/02 02:46:46;;;;;;;17.80;8.30;;;;;;;7.82;78.87;100123.40;24486;1326;3050659;-60
2023/01/02 02:49:37;;;;;;;12.90;6.90;;;;;;;7.69;79.66;100117.31;24463;1334;3056062;-60
2023/01/02 02:52:22;;;;;;;13.40;7.20;;;;;;;7.65;80.38;100119.17;24507;1330;3053459;-59
2023/01/02 02:55:06;;;;;;;11.50;6.90;;;;;;;8.18;78.96;100109.08;24468;1334;3054463;-58
2023/01/02 02:57:37;;;;;;;14.00;7.00;;;;;;;8.41;77.99;100103.45;24505;1339;3053460;-61
2023/01/02 03:00:08;;;;;;;13.10;7.10;;;;;;;8.14;78.06;100103.86;24489;1334;3026478;-60
2023/01/02 03:02:37;;;;;;;14.60;7.80;;;;;;;8.08;78.26;100097.30;24535;1333;3025763;-60
2023/01/02 03:05:09;;;;;;;21.90;9.90;;;;;;;7.72;78.98;100100.95;24462;1333;3028315;-61
2023/01/02 03:07:59;;;;;;;16.70;9.60;;;;;;;7.48;80.32;100107.44;24475;1334;3052182;-61
2023/01/02 03:10:32;;;;;;;17.40;7.20;;;;;;;7.21;82.18;100096.23;24420;1333;3050729;-61
2023/01/02 03:13:10;;;;;;;14.00;7.20;;;;;;;7.99;79.93;100101.64;24479;1326;3028345;-60
2023/01/02 03:15:47;;;;;;;14.50;7.20;;;;;;;8.29;78.19;100096.60;24471;1334;3048271;-60
2023/01/02 03:19:01;;;;;;;14.50;7.80;;;;;;;8.25;77.60;100094.16;24470;1334;3055960;-58
2023/01/02 03:21:43;;;;;;;12.30;7.60;;;;;;;7.77;78.47;100098.67;24408;1332;3052778;-61
2023/01/02 03:24:14;;;;;;;11.40;7.10;;;;;;;7.58;79.22;100090.84;24504;1334;3053153;-59
2023/01/02 03:26:45;;;;;;;13.20;7.20;;;;;;;7.23;80.54;100094.25;24472;1332;3028909;-59
2023/01/02 03:29:17;;;;;;;13.50;7.70;;;;;;;7.17;80.48;100091.87;24497;1340;3029268;-59
2023/01/02 03:31:49;;;;;;;9.70;5.00;;;;;;;6.90;82.03;100094.73;24448;1344;3025325;-61
2023/01/02 03:34:20;;;;;;;12.40;6.70;;;;;;;7.53;81.00;100093.80;24455;1330;3026722;-63
2023/01/02 03:36:53;;;;;;;14.90;8.20;;;;;;;8.05;78.51;100088.98;24465;1334;3026043;-63
2023/01/02 03:39:26;;;;;;;14.50;7.80;;;;;;;7.88;77.95;100090.75;24513;1334;3026955;-62
2023/01/02 03:41:59;;;;;;;16.20;8.60;;;;;;;7.65;78.25;100081.15;24450;1323;3029122;-60
2023/01/02 03:44:36;;;;;;;;;;;;;;;7.36;79.64;100084.89;24484;1334;3052525;-59
2023/01/02 03:47:30;;;;;;;13.30;7.30;;;;;;;7.19;79.70;100075.92;24505;1319;3050546;-61
2023/01/02 03:50:02;;;;;;;15.40;8.60;;;;;;;6.81;81.48;100081.11;24490;1330;3052289;-59
2023/01/02 03:52:31;;;;;;;15.20;8.20;;;;;;;6.51;83.61;100083.21;24502;1333;3025891;-61
2023/01/02 03:55:01;;;;;;;10.40;6.70;;;;;;;6.65;83.01;100082.90;24452;1327;3028870;-61
2023/01/02 03:57:41;;;;;;;13.60;7.50;;;;;;;7.28;81.27;100074.52;24483;1334;3052355;-61
2023/01/02 04:00:14;;;;;;;15.60;7.80;;;;;;;7.73;78.52;100076.16;24480;1340;3048992;-61
2023/01/02 04:02:54;;;;;;;16.70;10.30;;;;;;;7.46;79.00;100081.05;24476;1334;3068923;-60
2023/01/02 04:05:34;;;;;;;21.70;10.60;;;;;;;7.35;79.07;100088.09;24529;1326;3049626;-60
2023/01/02 04:08:07;;;;;;;23.30;12.30;;;;;;;7.01;80.30;100092.96;24488;1332;3056610;-61
2023/01/02 04:10:36;;;;;;;21.50;11.70;;;;;;;7.09;79.93;100087.63;24438;1327;3028300;-60
2023/01/02 04:13:09;;;;;;;16.40;9.90;;;;;;;6.88;80.86;100110.84;24494;1335;3027360;-60
2023/01/02 04:15:38;;;;;;;16.20;9.90;;;;;;;7.41;80.50;100103.16;24432;1333;3026292;-60
2023/01/02 04:18:08;;;;;;;17.30;9.10;;;;;;;7.84;78.59;100108.67;24469;1334;3026115;-60
2023/01/02 04:20:40;;;;;;;14.70;9.30;;;;;;;7.69;77.57;100101.24;24455;1327;3053122;-62
2023/01/02 04:23:13;;;;;;;19.40;8.80;;;;;;;7.35;79.22;100100.98;24467;1334;3050996;-60
2023/01/02 04:25:49;;;;;;;16.00;9.60;;;;;;;7.23;79.13;100089.39;24475;1334;3026614;-60
2023/01/02 04:28:25;;;;;;;18.80;10.60;;;;;;;6.84;80.23;100089.04;24492;1339;3051604;-61
2023/01/02 04:30:59;;;;;;;20.50;11.00;;;;;;;6.58;81.80;100085.22;24420;1334;3069091;-60
2023/01/02 04:33:28;;;;;;;13.70;7.90;;;;;;;6.72;81.43;100088.25;24428;1333;3050411;-60
2023/01/02 04:35:57;;;;;;;16.30;8.40;;;;;;;6.99;81.61;100097.19;24447;1326;3028401;-62
2023/01/02 04:38:26;;;;;;;16.60;9.70;;;;;;;7.38;79.62;100101.55;24405;1337;3068273;-59
2023/01/02 04:40:55;;;;;;;18.20;10.10;;;;;;;7.42;79.27;100099.14;24560;1323;3026631;-61
2023/01/02 04:43:25;;;;;;;13.90;9.30;;;;;;;7.20;79.26;100090.52;24443;1343;3048412;-60
2023/01/02 04:45:54;;;;;;;16.70;10.40;;;;;;;7.11;79.60;100089.28;24475;1332;3025811;-59
2023/01/02 04:48:24;;;;;;;19.30;10.00;;;;;;;6.95;79.96;100088.30;24503;1334;3053026;-59
2023/01/02 04:50:53;;;;;;;18.00;9.30;;;;;;;6.67;80.92;100086.64;24530;1334;3027971;-60
2023/01/02 04:53:22;;;;;;;15.80;9.20;;;;;;;6.50;82.03;100080.61;24454;1333;3051950;-59
2023/01/02 04:55:56;;;;;;;20.20;9.50;;;;;;;7.25;80.50;100076.42;24503;1333;3028627;-61
2023/01/02 04:58:26;;;;;;;18.70;8.60;;;;;;;7.70;78.29;100078.86;24513;1333;3053233;-59
2023/01/02 05:00:56;;;;;;;20.80;9.90;;;;;;;7.43;78.48;100090.70;24492;1334;3026330;-60
2023/01/02 05:03:25;;;;;;;15.70;9.40;;;;;;;7.20;79.22;100101.51;24478;1327;3027945;-59
2023/01/02 05:06:00;;;;;;;15.00;8.20;;;;;;;6.94;79.70;100105.58;24499;1329;3052791;-59
2023/01/02 05:08:30;;;;;;;17.70;9.30;;;;;;;6.81;80.26;100111.08;24465;1327;3051419;-60
2023/01/02 05:11:07;;;;;;;11.20;7.60;;;;;;;6.72;80.77;100119.20;24514;1334;3028057;-59
2023/01/02 05:13:36;;;;;;;10.80;6.10;;;;;;;6.69;82.05;100125.59;24507;1334;3048732;-59
2023/01/02 05:16:06;;;;;;;8.30;5.00;;;;;;;7.53;79.87;100139.68;24471;1325;3027087;-61
2023/01/02 05:18:35;;;;;;;13.30;6.50;;;;;;;8.11;77.92;100143.38;24512;1334;3051791;-60
2023/01/02 05:24:17;;;;;;;11.50;6.40;;;;;;;7.84;78.16;100159.09;24307;1340;3052080;-61
2023/01/02 05:26:46;;;;;;;12.40;7.50;;;;;;;7.79;77.62;100167.82;24355;1332;3028127;-60
2023/01/02 05:29:15;;;;;;;15.60;8.40;;;;;;;7.53;78.42;100182.21;24404;1340;3052151;-58
2023/01/02 05:31:44;;;;;;;12.50;7.30;;;;;;;7.31;79.22;100177.59;24478;1327;3027964;-57
2023/01/02 05:34:13;;;;;;;9.60;5.70;;;;;;;7.12;80.39;100184.70;24477;1330;3052098;-60
2023/01/02 05:36:42;;;;;;;11.90;6.70;;;;;;;7.95;78.44;100183.45;24505;1334;3028868;-59
2023/01/02 05:39:12;;;;;;;11.90;6.50;;;;;;;8.14;77.03;100197.02;24513;1326;3026336;-61
2023/01/02 05:41:42;;;;;;;11.80;7.20;;;;;;;8.13;76.14;100193.91;24534;1333;3026364;-58
2023/01/02 05:44:11;;;;;;;11.40;6.90;;;;;;;7.77;77.04;100198.96;24476;1333;3026239;-60
2023/01/02 05:46:40;;;;;;;11.90;7.50;;;;;;;7.63;77.51;100207.30;24480;1340;3051521;-59
2023/01/02 05:49:10;;;;;;;12.00;7.20;;;;;;;7.29;78.25;100204.50;24519;1324;3028227;-61
2023/01/02 05:51:39;;;;;;;17.10;8.20;;;;;;;7.08;79.05;100205.40;24513;1323;3052720;-62
2023/01/02 05:54:08;;;;;;;15.30;8.70;;;;;;;6.93;79.65;100219.50;24516;1333;3028610;-63
2023/01/02 05:56:37;;;;;;;12.50;7.40;;;;;;;6.95;79.84;100223.10;24506;1326;3052319;-62
2023/01/02 05:59:08;;;;;;;12.70;6.90;;;;;;;7.54;78.28;100222.48;24524;1340;3026188;-63
2023/01/02 06:01:37;;;;;;;15.20;7.30;;;;;;;7.81;77.41;100220.60;24509;1323;3028467;-61
2023/01/02 06:04:06;;;;;;;13.50;7.70;;;;;;;7.54;77.46;100216.35;24488;1333;3051766;-60
2023/01/02 06:06:37;;;;;;;11.30;6.70;;;;;;;7.38;77.83;100216.75;24545;1322;3027758;-61
2023/01/02 06:09:07;;;;;;;13.60;9.10;;;;;;;7.00;79.10;100225.70;24523;1334;3056978;-60
2023/01/02 06:11:36;;;;;;;13.60;8.50;;;;;;;6.93;79.44;100223.50;24505;1339;3026380;-62
2023/01/02 06:14:07;;;;;;;13.20;8.00;;;;;;;6.70;80.11;100236.27;24556;1324;3027610;-60
2023/01/02 06:16:38;;;;;;;11.40;6.40;;;;;;;6.64;81.18;100238.72;24527;1340;3056766;-62
2023/01/02 06:19:07;;;;;;;12.30;6.90;;;;;;;7.35;80.24;100239.84;24483;1339;3028960;-61
2023/01/02 06:21:36;;;;;;;12.40;7.50;;;;;;;7.93;78.01;100244.76;24509;1334;3026722;-62
2023/01/02 06:24:06;;;;;;;17.00;8.10;;;;;;;7.80;77.15;100244.17;24554;1327;3028809;-61
2023/01/02 06:26:35;;;;;;;12.90;7.60;;;;;;;7.51;77.38;100244.35;24495;1334;3052813;-64
2023/01/02 06:29:04;;;;;;;14.80;8.40;;;;;;;7.31;78.30;100243.33;24475;1327;3030051;-61
2023/01/02 06:31:33;;;;;;;12.00;8.00;;;;;;;7.11;78.85;100240.48;24486;1333;3056362;-61
2023/01/02 06:34:03;;;;;;;16.60;8.70;;;;;;;7.00;79.42;100243.65;24484;1333;3025715;-60
2023/01/02 06:36:32;;;;;;;17.70;8.60;;;;;;;6.86;79.87;100242.02;24492;1340;3025366;-57
2023/01/02 06:39:02;;;;;;;14.40;7.20;;;;;;;6.90;80.28;100245.02;24499;1333;3026190;-59
2023/01/02 06:41:31;;;;;;;15.00;7.60;;;;;;;7.36;79.98;100251.98;24473;1327;3028652;-60
2023/01/02 06:44:00;;;;;;;14.90;7.60;;;;;;;7.72;77.70;100252.50;24476;1334;3052814;-62
2023/01/02 06:46:29;;;;;;;18.40;8.50;;;;;;;7.76;77.34;100253.23;24503;1333;3028242;-60
2023/01/02 06:48:58;;;;;;;18.20;9.60;;;;;;;7.61;77.21;100260.58;24476;1334;3051480;-61
2023/01/02 06:51:27;;;;;;;15.20;9.20;;;;;;;7.55;77.07;100268.27;24523;1327;3027649;-61
2023/01/02 06:53:56;;;;;;;18.50;9.60;;;;;;;7.19;78.48;100272.48;24480;1332;3055928;-58
2023/01/02 06:56:25;;;;;;;15.60;8.40;;;;;;;6.81;80.14;100273.21;24542;1332;3028527;-62
2023/01/02 06:58:54;;;;;;;16.10;8.90;;;;;;;6.81;80.37;100277.52;24475;1334;3049999;-61
2023/01/02 07:01:23;;;;;;;17.50;8.50;;;;;;;7.00;80.41;100284.41;24485;1334;3028818;-62
2023/01/02 07:03:54;;;;;;;14.00;8.10;;;;;;;7.58;78.88;100273.02;24461;1326;3028720;-60
2023/01/02 07:06:26;;;;;;;14.30;8.00;;;;;;;7.79;77.38;100272.84;24525;1333;3049839;-60
2023/01/02 07:08:55;;;;;;;14.10;8.70;;;;;;;7.62;77.88;100266.47;24524;1327;3028833;-60
2023/01/02 07:11:25;;;;;;;13.40;8.10;;;;;;;7.46;78.73;100271.20;24497;1327;3026266;-62
2023/01/02 07:13:54;;;;;;;17.10;9.30;;;;;;;7.45;78.28;100275.60;24511;1324;3028340;-60
2023/01/02 07:16:23;;;;;;;14.80;8.10;;;;;;;7.21;79.42;100271.69;24460;1333;3056535;-60
2023/01/02 07:18:52;;;;;;;23.20;11.10;;;;;;;7.17;79.71;100281.58;24520;1332;3027553;-63
2023/01/02 07:21:21;;;;;;;15.60;7.50;;;;;;;7.16;80.59;100277.45;24529;1340;3049700;-61
2023/01/02 07:23:50;;;;;;;16.10;9.20;;;;;;;8.05;78.84;100285.50;24463;1334;3025966;-59
2023/01/02 07:26:19;;;;;;;17.50;9.30;;;;;;;8.39;77.08;100281.41;24528;1333;3069368;-63
2023/01/02 07:28:48;;;;;;;17.00;8.90;;;;;;;8.48;75.83;100273.23;24470;1319;3025826;-59
2023/01/02 07:31:18;;;;;;;17.70;9.50;;;;;;;8.28;76.37;100276.42;24495;1340;3049768;-62
2023/01/02 07:33:47;;;;;;;16.40;8.70;;;;;;;8.11;76.71;100274.27;24509;1340;3026611;-64
2023/01/02 07:36:18;;;;;;;18.40;8.70;;;;;;;7.92;77.42;100270.59;24526;1340;3028930;-61
2023/01/02 07:38:50;;;;;;;15.50;9.40;;;;;;;7.90;77.13;100271.41;24484;1339;3049406;-61
2023/01/02 07:41:21;;;;;;;17.30;9.80;;;;;;;7.76;77.87;100269.61;24529;1334;3026384;-59
2023/01/02 07:43:52;;;;;;;13.10;6.40;;;;;;;7.62;79.23;100272.02;24506;1323;3026597;-62
2023/01/02 07:46:21;;;;;;;12.20;7.40;;;;;;;8.39;77.34;100269.91;24521;1334;3026225;-62
2023/01/02 07:48:51;;;;;;;12.90;7.00;;;;;;;8.90;75.42;100275.59;24479;1326;3029339;-62
2023/01/02 07:51:19;;;;;;;12.90;7.90;;;;;;;8.88;74.97;100274.60;24552;1319;3025985;-61
2023/01/02 07:53:48;;;;;;;15.50;8.80;;;;;;;8.80;75.15;100272.85;24487;1332;3056156;-61
2023/01/02 07:56:17;;;;;;;16.60;10.00;;;;;;;8.69;75.20;100270.50;24534;1323;3028508;-61
2023/01/02 07:58:47;;;;;;;18.00;8.80;;;;;;;8.51;76.29;100272.23;24482;1334;3049639;-58
2023/01/02 08:01:16;;;;;;;17.50;8.60;;;;;;;8.52;76.17;100278.66;24505;1332;3028848;-61
2023/01/02 08:03:44;;;;;;;16.90;9.00;;;;;;;8.38;77.21;100280.91;24478;1327;3068827;-62
2023/01/02 08:06:15;;;;;;;16.20;8.90;;;;;;;8.47;77.01;100284.61;24508;1334;3028049;-61
2023/01/02 08:08:44;;;;;;;10.30;5.80;;;;;;;8.62;76.89;100288.40;24469;1334;3028806;-60
2023/01/02 08:11:15;;;;;;;13.30;6.50;;;;;;;9.27;74.84;100283.66;24489;1330;3026870;-60
2023/01/02 08:13:45;;;;;;;13.40;7.50;;;;;;;9.77;73.08;100282.93;24509;1334;3025962;-63
2023/01/02 08:16:18;;;;;;;11.60;7.30;;;;;;;10.13;71.83;100285.02;24478;1334;3026157;-63
2023/01/02 08:18:50;;;;;;;20.30;9.40;;;;;;;9.88;71.86;100291.89;24531;1326;3053331;-59
2023/01/02 08:21:19;;;;;;;20.00;8.70;;;;;;;9.73;72.84;100294.30;24488;1340;3028237;-61
2023/01/02 08:23:48;;;;;;;18.80;8.60;;;;;;;9.81;72.45;100295.54;24517;1333;3028077;-61
2023/01/02 08:26:17;;;;;;;17.20;9.70;;;;;;;9.73;72.67;100297.64;24510;1334;3052584;-63
2023/01/02 08:28:46;;;;;;;19.70;9.50;;;;;;;9.78;72.86;100301.24;24498;1326;3025734;-60
2023/01/02 08:31:18;;;;;;;21.00;10.30;;;;;;;9.71;72.95;100299.12;24544;1340;3056447;-61
2023/01/02 08:33:47;;;;;;;17.00;9.30;;;;;;;9.67;73.33;100299.09;24490;1333;3026901;-59
2023/01/02 08:36:16;;;;;;;15.60;8.90;;;;;;;9.70;73.48;100296.89;24530;1323;3028516;-62
2023/01/02 08:38:45;;;;;;;16.20;8.80;;;;;;;9.65;73.86;100296.04;24458;1339;3056478;-62
2023/01/02 08:41:14;;;;;;;17.70;9.40;;;;;;;9.73;73.67;100294.66;24483;1333;3028835;-62
2023/01/02 08:43:43;;;;;;;8.70;5.90;;;;;;;9.88;73.19;100299.60;24496;1330;3028344;-62
2023/01/02 08:46:12;;;;;;;12.10;6.20;;;;;;;10.48;72.27;100300.58;24441;1333;3055741;-63
2023/01/02 08:48:41;;;;;;;12.30;7.40;;;;;;;11.08;69.94;100296.68;24530;1326;3025732;-66
2023/01/02 08:51:10;;;;;;;18.70;8.70;;;;;;;11.15;69.42;100291.94;24457;1340;3049855;-62
2023/01/02 08:53:39;;;;;;;15.80;8.00;;;;;;;11.00;69.52;100285.65;24500;1329;3028333;-59
2023/01/02 08:56:29;;;;;;;14.60;8.70;;;;;;;10.97;69.52;100285.45;24453;1333;3068535;-61
2023/01/02 08:59:00;;;;;;;15.90;8.30;;;;;;;10.78;70.14;100286.92;24515;1334;3050200;-63
2023/01/02 09:01:30;;;;;;;12.60;7.50;;;;;;;10.77;70.20;100284.85;24538;1333;3026542;-64
2023/01/02 09:03:59;;;;;;;15.00;8.40;;;;;;;10.72;70.28;100289.11;24470;1327;3028867;-63
2023/01/02 09:06:29;;;;;;;16.00;7.90;;;;;;;10.67;70.51;100285.89;24468;1329;3028538;-61
2023/01/02 09:08:58;;;;;;;16.30;9.20;;;;;;;10.79;70.43;100282.84;24448;1319;3030062;-63
2023/01/02 09:11:34;;;;;;;16.20;8.90;;;;;;;10.77;70.27;100282.39;24541;1327;3028180;-61
2023/01/02 09:14:03;;;;;;;17.10;8.80;;;;;;;10.72;70.57;100282.79;24541;1327;3054765;-59
2023/01/02 09:16:33;;;;;;;16.30;9.10;;;;;;;10.67;71.16;100285.17;24470;1333;3028623;-62
2023/01/02 09:19:02;;;;;;;16.50;9.40;;;;;;;10.62;70.93;100283.44;24530;1329;3028586;-61
2023/01/02 09:21:31;;;;;;;16.60;8.20;;;;;;;10.65;70.89;100285.58;24519;1332;3053127;-61
2023/01/02 09:24:00;;;;;;;15.50;9.30;;;;;;;10.74;70.40;100281.67;24469;1326;3028110;-59
2023/01/02 09:26:30;;;;;;;14.70;7.10;;;;;;;10.78;70.51;100276.36;24517;1333;3052693;-61
2023/01/02 09:29:00;;;;;;;16.60;8.90;;;;;;;10.81;70.18;100279.40;24489;1337;3026711;-59
2023/01/02 09:31:29;;;;;;;18.30;8.00;;;;;;;10.95;70.13;100276.44;24526;1334;3028163;-62
2023/01/02 09:34:00;;;;;;;15.50;8.10;;;;;;;11.01;69.57;100278.23;24497;1333;3053075;-63
2023/01/02 09:36:29;;;;;;;19.90;8.90;;;;;;;11.01;69.39;100282.09;24512;1332;3028674;-59
2023/01/02 09:38:59;;;;;;;17.20;8.30;;;;;;;11.08;69.11;100281.42;24509;1333;3055892;-62
2023/01/02 09:41:48;;;;;;;18.60;8.10;;;;;;;11.04;69.20;100280.41;25427;1334;3025443;-62
2023/01/02 09:44:21;;;;;;;15.60;7.50;;;;;;;11.18;69.20;100277.91;25409;1334;3052606;-59
2023/01/02 09:47:02;;;;;;;;;;;;;;;11.16;68.83;100280.14;25424;1340;3050878;-62
2023/01/02 09:49:33;;;;;;;13.30;7.00;;;;;;;11.17;69.06;100280.41;25434;1329;3051628;-62
2023/01/02 09:52:02;;;;;;;19.50;7.20;;;;;;;11.15;68.85;100281.41;25413;1343;3026002;-60
2023/01/02 09:54:32;;;;;;;15.60;6.50;;;;;;;11.16;68.72;100285.23;25430;1334;3025966;-62
2023/01/02 09:57:25;;;;;;;11.90;6.00;;;;;;;11.11;69.03;100278.48;25387;1334;3051599;-62
2023/01/02 10:00:15;;;;;;;12.80;6.10;;;;;;;11.22;68.64;100283.17;25386;1337;3049286;-61
2023/01/02 10:03:20;;;;;;;12.30;6.40;;;;;;;11.31;68.44;100287.08;25429;1334;3068656;-62
2023/01/02 10:06:08;;;;;;;10.90;6.00;;;;;;;11.45;68.04;100286.24;25372;1337;3050304;-63
2023/01/02 10:08:57;;;;;;;12.20;5.90;;;;;;;11.41;68.05;100284.49;25364;1336;3058676;-60
2023/01/02 10:11:38;;;;;;;12.00;6.50;;;;;;;11.37;68.04;100283.27;25362;1337;3053729;-63
2023/01/02 10:14:12;;;;;;;9.90;5.70;;;;;;;11.46;67.84;100286.15;25393;1336;3052992;-61
2023/01/02 10:16:43;;;;;;;13.30;6.20;;;;;;;11.55;67.70;100287.13;25403;1334;3051306;-61
2023/01/02 10:19:20;;;;;;;12.10;6.50;;;;;;;11.69;67.29;100290.77;25429;1326;3027311;-62
2023/01/02 10:21:51;;;;;;;12.70;6.10;;;;;;;11.81;67.09;100291.89;25438;1339;3047847;-61
2023/01/02 10:24:24;;;;;;;11.60;5.30;;;;;;;11.74;67.05;100295.42;25411;1340;3026491;-65
2023/01/02 10:26:53;;;;;;;10.50;5.70;;;;;;;11.79;66.92;100287.61;25404;1332;3028268;-61
2023/01/02 10:29:29;;;;;;;10.00;5.20;;;;;;;11.76;67.05;100285.52;25436;1332;3026197;-63
2023/01/02 10:32:10;;;;;;;10.00;5.60;;;;;;;11.61;67.25;100285.23;25394;1331;3068304;-62
2023/01/02 10:34:49;;;;;;;12.60;6.20;;;;;;;11.77;66.97;100280.52;25415;1333;3050062;-62
2023/01/02 10:37:18;;;;;;;8.50;4.80;;;;;;;11.94;66.63;100283.50;25412;1333;3056947;-62
2023/01/02 10:39:48;;;;;;;9.30;5.00;;;;;;;12.04;66.64;100277.36;25434;1317;3026194;-62
2023/01/02 10:42:17;;;;;;;9.50;5.50;;;;;;;11.88;66.27;100272.40;25441;1327;3026257;-58
2023/01/02 10:44:46;;;;;;;8.10;5.50;;;;;;;11.85;66.48;100272.04;25410;1328;3026075;-61
2023/01/02 10:47:32;;;;;;;10.40;5.30;;;;;;;11.75;66.80;100271.00;25420;1330;3052501;-61
2023/01/02 10:50:06;;;;;;;7.30;4.80;;;;;;;11.76;66.67;100263.22;25403;1343;3053409;-60
2023/01/02 10:52:45;;;;;;;11.00;4.90;;;;;;;11.91;66.85;100266.63;24723;1334;4579337;-63
2023/01/02 10:55:47;;;;;;;9.00;5.40;;;;;;;11.89;66.66;100263.38;25439;1334;3051650;-59
2023/01/02 10:58:24;;;;;;;8.80;5.10;;;;;;;11.92;66.62;100264.98;25420;1333;3050545;-61
2023/01/02 11:01:06;;;;;;;9.70;5.10;;;;;;;11.96;66.45;100273.09;25390;1326;3068918;-60
2023/01/02 11:03:35;;;;;;;8.40;4.90;;;;;;;12.02;66.52;100270.27;25409;1328;3049863;-61
2023/01/02 11:06:17;;;;;;;9.50;5.60;;;;;;;12.15;66.13;100263.27;25445;1334;3025683;-60
2023/01/02 11:09:03;;;;;;;9.70;5.00;;;;;;;12.12;65.91;100269.61;25382;1336;3053542;-62
2023/01/02 11:11:32;;;;;;;10.00;5.40;;;;;;;12.17;65.82;100268.59;25421;1328;3051641;-62
2023/01/02 11:14:05;;;;;;;6.90;4.50;;;;;;;12.19;65.86;100279.05;25396;1328;3026673;-61
2023/01/02 11:16:36;;;;;;;10.50;5.10;;;;;;;12.25;65.67;100275.90;25441;1330;3052603;-62
2023/01/02 11:19:18;;;;;;;7.10;5.20;;;;;;;12.21;65.60;100279.08;25440;1332;3025829;-66
2023/01/02 11:21:47;;;;;;;6.90;4.80;;;;;;;12.30;65.34;100275.63;25396;1333;3050715;-61
2023/01/02 11:24:18;;;;;;;10.70;5.80;;;;;;;12.41;65.48;100275.88;25399;1333;3026240;-60
2023/01/02 11:26:48;;;;;;;8.80;5.00;;;;;;;12.41;64.55;100281.69;25413;1326;3026021;-62
2023/01/02 11:29:23;;;;;;;9.40;5.30;;;;;;;12.39;65.18;100279.19;25412;1333;3026403;-61
2023/01/02 11:31:57;;;;;;;8.70;4.60;;;;;;;12.39;65.09;100278.46;25417;1334;3052208;-63
2023/01/02 11:34:35;;;;;;;8.20;5.30;;;;;;;12.47;65.32;100269.26;25435;1320;3024924;-61
2023/01/02 11:37:10;;;;;;;11.00;5.60;;;;;;;12.53;64.71;100271.37;25425;1334;3068615;-59